CLX9521 WMKK-VHHH
Flight info
| Callsign | CLX9521 |
|---|---|
| Flight time | N/A |
| Altitude | 35000 |
| Route | KIMAT2D KIMAT Y344 VPK L629 DOLOX DCT DUDIS/K0907F350 DCT DAGAG/K0906S1130 DCT DOSUT/N0486F370 DCT DULOP Q1 CARSO/N0487F380 V551 CYBER V542 BETTY |
| Aircraft | B748/H-SDE3FGHIM1M2RWXY/LB1 |
Departure
| Time | 2026-05-04 06:48 |
|---|---|
| Airport | Kuala Lumpur International Airport (WMKK) |
Arrival
| Time | N/A |
|---|---|
| Airport | Hong Kong International Airport (VHHH) |
| Time | Latitude | Longitude | Altitude | Speed | Heading |
|---|---|---|---|---|---|
| 2026-05-04 06:18 | 2.73407 | 101.70980 | 84 ft | 0 kts | 56° |
| 2026-05-04 06:31 | 2.73402 | 101.70972 | 83 ft | 3 kts | 54° |
| 2026-05-04 06:32 | 2.73390 | 101.70956 | 83 ft | 3 kts | 52° |
| 2026-05-04 06:33 | 2.73420 | 101.70872 | 83 ft | 1 kts | 148° |
| 2026-05-04 06:34 | 2.73421 | 101.70871 | 83 ft | 0 kts | 148° |
| 2026-05-04 06:40 | 2.73342 | 101.70919 | 83 ft | 15 kts | 148° |
| 2026-05-04 06:40 | 2.73242 | 101.70985 | 83 ft | 15 kts | 145° |
| 2026-05-04 06:40 | 2.73140 | 101.71055 | 83 ft | 14 kts | 146° |
| 2026-05-04 06:40 | 2.73033 | 101.71129 | 83 ft | 23 kts | 146° |
| 2026-05-04 06:41 | 2.72884 | 101.71223 | 83 ft | 24 kts | 167° |
| 2026-05-04 06:41 | 2.72808 | 101.71151 | 83 ft | 6 kts | 308° |
| 2026-05-04 06:41 | 2.72861 | 101.71117 | 83 ft | 13 kts | 327° |
| 2026-05-04 06:41 | 2.72955 | 101.71056 | 83 ft | 20 kts | 327° |
| 2026-05-04 06:42 | 2.73085 | 101.70970 | 83 ft | 25 kts | 326° |
| 2026-05-04 06:42 | 2.73246 | 101.70861 | 84 ft | 31 kts | 326° |
| 2026-05-04 06:42 | 2.73433 | 101.70735 | 83 ft | 27 kts | 326° |
| 2026-05-04 06:44 | 2.74067 | 101.71552 | 83 ft | 33 kts | 53° |
| 2026-05-04 06:44 | 2.74198 | 101.71744 | 83 ft | 34 kts | 57° |
| 2026-05-04 06:44 | 2.74313 | 101.71912 | 83 ft | 26 kts | 58° |
| 2026-05-04 06:45 | 2.74424 | 101.72064 | 83 ft | 27 kts | 53° |
| 2026-05-04 06:45 | 2.74511 | 101.72183 | 83 ft | 17 kts | 4° |
| 2026-05-04 06:45 | 2.74624 | 101.72123 | 83 ft | 16 kts | 337° |
| 2026-05-04 06:45 | 2.74706 | 101.72182 | 83 ft | 19 kts | 63° |
| 2026-05-04 06:46 | 2.74821 | 101.72221 | 83 ft | 21 kts | 321° |
| 2026-05-04 06:46 | 2.74861 | 101.72190 | 83 ft | 0 kts | 324° |
| 2026-05-04 06:46 | 2.74982 | 101.72108 | 84 ft | 49 kts | 326° |
| 2026-05-04 06:46 | 2.75436 | 101.71799 | 84 ft | 108 kts | 325° |
| 2026-05-04 06:48 | 2.82599 | 101.67692 | 1452 ft | 175 kts | 340° |
| 2026-05-04 06:48 | 2.83776 | 101.67340 | 1672 ft | 180 kts | 341° |
| 2026-05-04 06:49 | 2.84989 | 101.66958 | 1861 ft | 184 kts | 341° |